sensor_id;sensor_type;location;lat;lon;timestamp;P1;durP1;ratioP1;P2;durP2;ratioP2
34673;SDS011;20879;55.668;37.858;2022-10-15T00:00:16;5.85;;;3.33;;
34673;SDS011;20879;55.668;37.858;2022-10-15T00:02:47;5.38;;;3.33;;
34673;SDS011;20879;55.668;37.858;2022-10-15T00:05:16;6.25;;;3.30;;
34673;SDS011;20879;55.668;37.858;2022-10-15T00:07:45;6.97;;;3.38;;
34673;SDS011;20879;55.668;37.858;2022-10-15T00:10:22;7.22;;;3.33;;
34673;SDS011;20879;55.668;37.858;2022-10-15T00:12:51;4.45;;;3.25;;
34673;SDS011;20879;55.668;37.858;2022-10-15T00:15:21;7.15;;;2.85;;
34673;SDS011;20879;55.668;37.858;2022-10-15T00:17:58;5.80;;;3.20;;
34673;SDS011;20879;55.668;37.858;2022-10-15T00:20:33;7.30;;;3.55;;
34673;SDS011;20879;55.668;37.858;2022-10-15T00:23:02;6.30;;;3.63;;
34673;SDS011;20879;55.668;37.858;2022-10-15T00:25:31;6.95;;;4.22;;
34673;SDS011;20879;55.668;37.858;2022-10-15T00:28:00;7.72;;;4.68;;
34673;SDS011;20879;55.668;37.858;2022-10-15T00:30:29;9.25;;;4.90;;
34673;SDS011;20879;55.668;37.858;2022-10-15T00:33:01;10.90;;;4.90;;
34673;SDS011;20879;55.668;37.858;2022-10-15T00:35:35;9.55;;;4.90;;
34673;SDS011;20879;55.668;37.858;2022-10-15T00:38:19;10.55;;;5.53;;
34673;SDS011;20879;55.668;37.858;2022-10-15T00:40:48;9.60;;;5.55;;
34673;SDS011;20879;55.668;37.858;2022-10-15T00:46:13;11.65;;;4.80;;
34673;SDS011;20879;55.668;37.858;2022-10-15T00:48:47;11.25;;;5.30;;
34673;SDS011;20879;55.668;37.858;2022-10-15T00:51:19;12.13;;;5.00;;
34673;SDS011;20879;55.668;37.858;2022-10-15T00:53:52;10.80;;;4.40;;
34673;SDS011;20879;55.668;37.858;2022-10-15T00:56:22;7.82;;;4.65;;
34673;SDS011;20879;55.668;37.858;2022-10-15T00:58:53;8.05;;;4.70;;
34673;SDS011;20879;55.668;37.858;2022-10-15T01:01:29;9.82;;;4.65;;
34673;SDS011;20879;55.668;37.858;2022-10-15T01:04:01;8.98;;;4.88;;
34673;SDS011;20879;55.668;37.858;2022-10-15T01:06:33;10.05;;;5.07;;
34673;SDS011;20879;55.668;37.858;2022-10-15T01:09:14;10.20;;;5.18;;
34673;SDS011;20879;55.668;37.858;2022-10-15T01:11:49;11.35;;;4.93;;
34673;SDS011;20879;55.668;37.858;2022-10-15T01:14:24;10.57;;;4.68;;
34673;SDS011;20879;55.668;37.858;2022-10-15T01:17:03;8.15;;;4.35;;
34673;SDS011;20879;55.668;37.858;2022-10-15T01:19:45;9.00;;;4.22;;
34673;SDS011;20879;55.668;37.858;2022-10-15T01:22:39;6.75;;;3.92;;
34673;SDS011;20879;55.668;37.858;2022-10-15T01:25:23;9.70;;;4.65;;
34673;SDS011;20879;55.668;37.858;2022-10-15T01:28:05;9.73;;;4.70;;
34673;SDS011;20879;55.668;37.858;2022-10-15T01:30:50;10.45;;;4.75;;
34673;SDS011;20879;55.668;37.858;2022-10-15T01:33:30;8.35;;;4.70;;
34673;SDS011;20879;55.668;37.858;2022-10-15T01:36:06;7.80;;;4.50;;
34673;SDS011;20879;55.668;37.858;2022-10-15T01:38:45;5.97;;;3.65;;
34673;SDS011;20879;55.668;37.858;2022-10-15T01:43:59;10.52;;;3.75;;
34673;SDS011;20879;55.668;37.858;2022-10-15T01:46:54;7.35;;;3.63;;
34673;SDS011;20879;55.668;37.858;2022-10-15T01:49:29;5.22;;;3.55;;
34673;SDS011;20879;55.668;37.858;2022-10-15T01:52:08;6.85;;;3.20;;
34673;SDS011;20879;55.668;37.858;2022-10-15T01:54:42;4.75;;;2.88;;
34673;SDS011;20879;55.668;37.858;2022-10-15T01:57:21;7.32;;;3.45;;
34673;SDS011;20879;55.668;37.858;2022-10-15T02:00:00;5.80;;;3.50;;
34673;SDS011;20879;55.668;37.858;2022-10-15T02:02:40;4.32;;;2.75;;
34673;SDS011;20879;55.668;37.858;2022-10-15T02:05:16;5.10;;;3.45;;
34673;SDS011;20879;55.668;37.858;2022-10-15T02:07:56;5.32;;;3.05;;
34673;SDS011;20879;55.668;37.858;2022-10-15T02:10:37;7.65;;;3.30;;
34673;SDS011;20879;55.668;37.858;2022-10-15T02:13:22;7.22;;;3.10;;
34673;SDS011;20879;55.668;37.858;2022-10-15T02:16:22;4.95;;;3.03;;
34673;SDS011;20879;55.668;37.858;2022-10-15T02:18:59;5.45;;;3.33;;
34673;SDS011;20879;55.668;37.858;2022-10-15T02:21:36;5.50;;;3.45;;
34673;SDS011;20879;55.668;37.858;2022-10-15T02:24:11;7.93;;;3.20;;
34673;SDS011;20879;55.668;37.858;2022-10-15T02:26:43;4.93;;;3.05;;
34673;SDS011;20879;55.668;37.858;2022-10-15T02:29:15;6.47;;;3.47;;
34673;SDS011;20879;55.668;37.858;2022-10-15T02:31:49;6.13;;;3.58;;
34673;SDS011;20879;55.668;37.858;2022-10-15T02:34:21;6.70;;;3.10;;
34673;SDS011;20879;55.668;37.858;2022-10-15T02:36:57;6.47;;;3.08;;
34673;SDS011;20879;55.668;37.858;2022-10-15T02:39:29;6.68;;;3.38;;
34673;SDS011;20879;55.668;37.858;2022-10-15T02:44:47;8.48;;;3.97;;
34673;SDS011;20879;55.668;37.858;2022-10-15T02:47:16;6.22;;;3.40;;
34673;SDS011;20879;55.668;37.858;2022-10-15T02:49:48;10.90;;;4.40;;
34673;SDS011;20879;55.668;37.858;2022-10-15T02:52:22;8.10;;;3.80;;
34673;SDS011;20879;55.668;37.858;2022-10-15T02:54:52;8.02;;;3.67;;
34673;SDS011;20879;55.668;37.858;2022-10-15T02:57:21;7.57;;;3.80;;
34673;SDS011;20879;55.668;37.858;2022-10-15T02:59:51;6.50;;;3.70;;
34673;SDS011;20879;55.668;37.858;2022-10-15T03:02:20;5.00;;;3.67;;
34673;SDS011;20879;55.668;37.858;2022-10-15T03:04:51;12.18;;;3.28;;
34673;SDS011;20879;55.668;37.858;2022-10-15T03:07:22;6.07;;;3.25;;
34673;SDS011;20879;55.668;37.858;2022-10-15T03:09:52;8.93;;;3.53;;
34673;SDS011;20879;55.668;37.858;2022-10-15T03:12:22;8.55;;;3.53;;
34673;SDS011;20879;55.668;37.858;2022-10-15T03:14:52;9.25;;;3.35;;
34673;SDS011;20879;55.668;37.858;2022-10-15T03:17:22;7.15;;;3.63;;
34673;SDS011;20879;55.668;37.858;2022-10-15T03:19:54;5.25;;;3.00;;
34673;SDS011;20879;55.668;37.858;2022-10-15T03:22:23;6.82;;;3.22;;
34673;SDS011;20879;55.668;37.858;2022-10-15T03:24:57;7.18;;;3.30;;
34673;SDS011;20879;55.668;37.858;2022-10-15T03:27:29;6.70;;;3.40;;
34673;SDS011;20879;55.668;37.858;2022-10-15T03:30:12;4.80;;;2.90;;
34673;SDS011;20879;55.668;37.858;2022-10-15T03:32:41;8.43;;;3.28;;
34673;SDS011;20879;55.668;37.858;2022-10-15T03:35:12;5.95;;;3.00;;
34673;SDS011;20879;55.668;37.858;2022-10-15T03:37:47;7.15;;;3.00;;
34673;SDS011;20879;55.668;37.858;2022-10-15T03:40:17;4.95;;;3.00;;
34673;SDS011;20879;55.668;37.858;2022-10-15T03:42:55;7.05;;;3.40;;
34673;SDS011;20879;55.668;37.858;2022-10-15T03:45:25;5.80;;;3.05;;
34673;SDS011;20879;55.668;37.858;2022-10-15T03:48:09;7.43;;;3.60;;
34673;SDS011;20879;55.668;37.858;2022-10-15T03:50:41;6.43;;;3.22;;
34673;SDS011;20879;55.668;37.858;2022-10-15T03:53:30;7.77;;;3.17;;
34673;SDS011;20879;55.668;37.858;2022-10-15T03:56:01;7.10;;;2.97;;
34673;SDS011;20879;55.668;37.858;2022-10-15T03:58:35;5.47;;;3.20;;
34673;SDS011;20879;55.668;37.858;2022-10-15T04:01:11;6.25;;;2.95;;
34673;SDS011;20879;55.668;37.858;2022-10-15T04:03:44;7.00;;;3.20;;
34673;SDS011;20879;55.668;37.858;2022-10-15T04:06:18;5.18;;;3.30;;
34673;SDS011;20879;55.668;37.858;2022-10-15T04:08:47;5.78;;;2.75;;
34673;SDS011;20879;55.668;37.858;2022-10-15T04:11:23;5.25;;;2.78;;
34673;SDS011;20879;55.668;37.858;2022-10-15T04:14:00;4.38;;;2.97;;
34673;SDS011;20879;55.668;37.858;2022-10-15T04:16:38;5.53;;;3.17;;
34673;SDS011;20879;55.668;37.858;2022-10-15T04:19:13;4.82;;;2.97;;
34673;SDS011;20879;55.668;37.858;2022-10-15T04:21:57;6.18;;;3.25;;
34673;SDS011;20879;55.668;37.858;2022-10-15T04:24:31;6.03;;;3.27;;
34673;SDS011;20879;55.668;37.858;2022-10-15T04:27:06;7.90;;;3.47;;
34673;SDS011;20879;55.668;37.858;2022-10-15T04:29:40;6.47;;;3.58;;
34673;SDS011;20879;55.668;37.858;2022-10-15T04:32:14;7.25;;;2.85;;
34673;SDS011;20879;55.668;37.858;2022-10-15T04:34:43;7.65;;;2.80;;
34673;SDS011;20879;55.668;37.858;2022-10-15T04:37:18;5.95;;;3.30;;
34673;SDS011;20879;55.668;37.858;2022-10-15T04:39:48;9.10;;;3.28;;
34673;SDS011;20879;55.668;37.858;2022-10-15T04:42:17;6.03;;;3.20;;
34673;SDS011;20879;55.668;37.858;2022-10-15T04:44:48;7.55;;;3.35;;
34673;SDS011;20879;55.668;37.858;2022-10-15T04:47:17;10.00;;;3.40;;
34673;SDS011;20879;55.668;37.858;2022-10-15T04:50:08;8.55;;;3.58;;
34673;SDS011;20879;55.668;37.858;2022-10-15T04:52:58;7.32;;;3.80;;
34673;SDS011;20879;55.668;37.858;2022-10-15T04:55:41;7.95;;;3.70;;
34673;SDS011;20879;55.668;37.858;2022-10-15T04:58:10;11.60;;;4.30;;
34673;SDS011;20879;55.668;37.858;2022-10-15T05:00:40;13.55;;;5.45;;
34673;SDS011;20879;55.668;37.858;2022-10-15T05:03:25;7.78;;;4.15;;
34673;SDS011;20879;55.668;37.858;2022-10-15T05:06:01;9.52;;;4.63;;
34673;SDS011;20879;55.668;37.858;2022-10-15T05:08:34;11.27;;;4.53;;
34673;SDS011;20879;55.668;37.858;2022-10-15T05:11:16;12.50;;;4.47;;
34673;SDS011;20879;55.668;37.858;2022-10-15T05:13:53;10.73;;;4.28;;
34673;SDS011;20879;55.668;37.858;2022-10-15T05:16:31;15.25;;;4.75;;
34673;SDS011;20879;55.668;37.858;2022-10-15T05:19:02;11.50;;;4.70;;
34673;SDS011;20879;55.668;37.858;2022-10-15T05:21:40;11.55;;;4.22;;
34673;SDS011;20879;55.668;37.858;2022-10-15T05:24:22;8.93;;;4.60;;
34673;SDS011;20879;55.668;37.858;2022-10-15T05:26:59;7.75;;;4.60;;
34673;SDS011;20879;55.668;37.858;2022-10-15T05:29:31;6.60;;;3.70;;
34673;SDS011;20879;55.668;37.858;2022-10-15T05:32:01;10.52;;;4.00;;
34673;SDS011;20879;55.668;37.858;2022-10-15T05:34:30;8.82;;;3.95;;
34673;SDS011;20879;55.668;37.858;2022-10-15T05:37:04;12.38;;;4.07;;
34673;SDS011;20879;55.668;37.858;2022-10-15T05:39:36;10.18;;;4.00;;
34673;SDS011;20879;55.668;37.858;2022-10-15T05:42:05;6.57;;;3.50;;
34673;SDS011;20879;55.668;37.858;2022-10-15T05:44:50;5.85;;;3.53;;
34673;SDS011;20879;55.668;37.858;2022-10-15T05:47:24;9.82;;;3.67;;
34673;SDS011;20879;55.668;37.858;2022-10-15T05:50:10;6.88;;;3.47;;
34673;SDS011;20879;55.668;37.858;2022-10-15T05:52:47;5.30;;;3.22;;
34673;SDS011;20879;55.668;37.858;2022-10-15T05:55:50;7.88;;;4.03;;
34673;SDS011;20879;55.668;37.858;2022-10-15T05:58:25;6.15;;;3.63;;
34673;SDS011;20879;55.668;37.858;2022-10-15T06:01:01;8.07;;;3.97;;
34673;SDS011;20879;55.668;37.858;2022-10-15T06:03:52;12.38;;;4.22;;
34673;SDS011;20879;55.668;37.858;2022-10-15T06:06:24;10.15;;;5.28;;
34673;SDS011;20879;55.668;37.858;2022-10-15T06:08:54;12.52;;;4.30;;
34673;SDS011;20879;55.668;37.858;2022-10-15T06:11:30;9.65;;;3.83;;
34673;SDS011;20879;55.668;37.858;2022-10-15T06:13:59;9.63;;;4.20;;
34673;SDS011;20879;55.668;37.858;2022-10-15T06:16:29;13.68;;;7.47;;
34673;SDS011;20879;55.668;37.858;2022-10-15T06:18:58;10.32;;;4.47;;
34673;SDS011;20879;55.668;37.858;2022-10-15T06:21:28;6.93;;;3.60;;
34673;SDS011;20879;55.668;37.858;2022-10-15T06:23:59;6.78;;;3.75;;
34673;SDS011;20879;55.668;37.858;2022-10-15T06:26:35;10.25;;;3.45;;
34673;SDS011;20879;55.668;37.858;2022-10-15T06:29:04;7.40;;;3.95;;
34673;SDS011;20879;55.668;37.858;2022-10-15T06:31:33;9.95;;;3.63;;
34673;SDS011;20879;55.668;37.858;2022-10-15T06:34:08;9.75;;;4.10;;
34673;SDS011;20879;55.668;37.858;2022-10-15T06:36:37;6.70;;;3.67;;
34673;SDS011;20879;55.668;37.858;2022-10-15T06:39:07;9.13;;;4.82;;
34673;SDS011;20879;55.668;37.858;2022-10-15T06:41:40;6.95;;;3.40;;
34673;SDS011;20879;55.668;37.858;2022-10-15T06:44:15;6.63;;;3.63;;
34673;SDS011;20879;55.668;37.858;2022-10-15T06:46:44;7.47;;;3.95;;
34673;SDS011;20879;55.668;37.858;2022-10-15T06:49:14;8.18;;;3.58;;
34673;SDS011;20879;55.668;37.858;2022-10-15T06:51:43;6.13;;;3.75;;
34673;SDS011;20879;55.668;37.858;2022-10-15T06:54:12;4.10;;;3.13;;
34673;SDS011;20879;55.668;37.858;2022-10-15T06:56:43;5.82;;;3.33;;
34673;SDS011;20879;55.668;37.858;2022-10-15T06:59:12;7.50;;;3.50;;
34673;SDS011;20879;55.668;37.858;2022-10-15T07:01:41;6.50;;;3.45;;
34673;SDS011;20879;55.668;37.858;2022-10-15T07:04:11;8.10;;;3.33;;
34673;SDS011;20879;55.668;37.858;2022-10-15T07:06:40;6.30;;;3.63;;
34673;SDS011;20879;55.668;37.858;2022-10-15T07:09:09;8.93;;;3.88;;
34673;SDS011;20879;55.668;37.858;2022-10-15T07:11:38;7.00;;;3.22;;
34673;SDS011;20879;55.668;37.858;2022-10-15T07:14:10;6.22;;;3.33;;
34673;SDS011;20879;55.668;37.858;2022-10-15T07:16:39;11.73;;;5.05;;
34673;SDS011;20879;55.668;37.858;2022-10-15T07:19:14;11.48;;;3.92;;
34673;SDS011;20879;55.668;37.858;2022-10-15T07:21:50;6.77;;;3.10;;
34673;SDS011;20879;55.668;37.858;2022-10-15T07:24:19;5.82;;;2.90;;
34673;SDS011;20879;55.668;37.858;2022-10-15T07:26:49;6.45;;;2.80;;
34673;SDS011;20879;55.668;37.858;2022-10-15T07:29:20;12.80;;;3.38;;
34673;SDS011;20879;55.668;37.858;2022-10-15T07:31:54;6.28;;;3.00;;
34673;SDS011;20879;55.668;37.858;2022-10-15T07:34:23;6.78;;;3.00;;
34673;SDS011;20879;55.668;37.858;2022-10-15T07:36:53;6.38;;;3.10;;
34673;SDS011;20879;55.668;37.858;2022-10-15T07:39:22;7.18;;;3.30;;
34673;SDS011;20879;55.668;37.858;2022-10-15T07:41:52;8.13;;;4.07;;
34673;SDS011;20879;55.668;37.858;2022-10-15T07:44:23;10.27;;;4.90;;
34673;SDS011;20879;55.668;37.858;2022-10-15T07:46:52;13.52;;;5.63;;
34673;SDS011;20879;55.668;37.858;2022-10-15T07:49:22;15.43;;;6.53;;
34673;SDS011;20879;55.668;37.858;2022-10-15T07:51:52;18.85;;;7.25;;
34673;SDS011;20879;55.668;37.858;2022-10-15T07:54:23;17.83;;;6.68;;
34673;SDS011;20879;55.668;37.858;2022-10-15T07:56:53;16.45;;;7.15;;
34673;SDS011;20879;55.668;37.858;2022-10-15T07:59:38;20.00;;;7.30;;
34673;SDS011;20879;55.668;37.858;2022-10-15T08:02:10;17.60;;;7.72;;
34673;SDS011;20879;55.668;37.858;2022-10-15T08:04:47;21.80;;;7.63;;
34673;SDS011;20879;55.668;37.858;2022-10-15T08:07:16;19.42;;;6.88;;
34673;SDS011;20879;55.668;37.858;2022-10-15T08:09:45;20.60;;;6.80;;
34673;SDS011;20879;55.668;37.858;2022-10-15T08:12:14;19.63;;;7.20;;
34673;SDS011;20879;55.668;37.858;2022-10-15T08:14:51;18.77;;;7.35;;
34673;SDS011;20879;55.668;37.858;2022-10-15T08:17:20;16.38;;;6.68;;
34673;SDS011;20879;55.668;37.858;2022-10-15T08:19:49;17.17;;;6.43;;
34673;SDS011;20879;55.668;37.858;2022-10-15T08:22:19;12.52;;;6.28;;
34673;SDS011;20879;55.668;37.858;2022-10-15T08:24:48;14.65;;;6.25;;
34673;SDS011;20879;55.668;37.858;2022-10-15T08:27:17;15.60;;;6.25;;
34673;SDS011;20879;55.668;37.858;2022-10-15T08:29:46;14.43;;;6.55;;
34673;SDS011;20879;55.668;37.858;2022-10-15T08:32:18;12.60;;;5.93;;
34673;SDS011;20879;55.668;37.858;2022-10-15T08:34:47;13.07;;;6.10;;
34673;SDS011;20879;55.668;37.858;2022-10-15T08:37:19;13.25;;;5.78;;
34673;SDS011;20879;55.668;37.858;2022-10-15T08:39:48;10.13;;;5.38;;
34673;SDS011;20879;55.668;37.858;2022-10-15T08:42:18;13.80;;;5.85;;
34673;SDS011;20879;55.668;37.858;2022-10-15T08:44:52;13.02;;;6.13;;
34673;SDS011;20879;55.668;37.858;2022-10-15T08:47:33;15.18;;;7.05;;
34673;SDS011;20879;55.668;37.858;2022-10-15T08:50:11;28.50;;;6.35;;
34673;SDS011;20879;55.668;37.858;2022-10-15T08:52:49;9.98;;;5.20;;
34673;SDS011;20879;55.668;37.858;2022-10-15T08:55:28;13.63;;;5.85;;
34673;SDS011;20879;55.668;37.858;2022-10-15T08:58:04;15.27;;;5.80;;
34673;SDS011;20879;55.668;37.858;2022-10-15T09:00:41;17.35;;;6.25;;
34673;SDS011;20879;55.668;37.858;2022-10-15T09:03:30;16.80;;;6.28;;
34673;SDS011;20879;55.668;37.858;2022-10-15T09:06:07;15.15;;;6.20;;
34673;SDS011;20879;55.668;37.858;2022-10-15T09:08:44;10.93;;;5.40;;
34673;SDS011;20879;55.668;37.858;2022-10-15T09:11:28;16.02;;;5.90;;
34673;SDS011;20879;55.668;37.858;2022-10-15T09:14:10;11.35;;;4.80;;
34673;SDS011;20879;55.668;37.858;2022-10-15T09:16:42;13.98;;;4.90;;
34673;SDS011;20879;55.668;37.858;2022-10-15T09:19:18;10.65;;;4.75;;
34673;SDS011;20879;55.668;37.858;2022-10-15T09:21:50;11.90;;;5.18;;
34673;SDS011;20879;55.668;37.858;2022-10-15T09:24:20;11.50;;;5.40;;
34673;SDS011;20879;55.668;37.858;2022-10-15T09:26:59;10.38;;;5.15;;
34673;SDS011;20879;55.668;37.858;2022-10-15T09:29:36;14.52;;;5.18;;
34673;SDS011;20879;55.668;37.858;2022-10-15T09:32:13;15.88;;;5.80;;
34673;SDS011;20879;55.668;37.858;2022-10-15T09:34:50;11.85;;;5.78;;
34673;SDS011;20879;55.668;37.858;2022-10-15T09:37:27;11.43;;;5.78;;
34673;SDS011;20879;55.668;37.858;2022-10-15T09:40:24;17.02;;;5.97;;
34673;SDS011;20879;55.668;37.858;2022-10-15T09:43:03;12.75;;;5.20;;
34673;SDS011;20879;55.668;37.858;2022-10-15T09:45:33;16.65;;;6.10;;
34673;SDS011;20879;55.668;37.858;2022-10-15T09:48:04;14.25;;;6.00;;
34673;SDS011;20879;55.668;37.858;2022-10-15T09:50:45;15.10;;;6.10;;
34673;SDS011;20879;55.668;37.858;2022-10-15T09:53:24;12.80;;;5.22;;
34673;SDS011;20879;55.668;37.858;2022-10-15T09:56:07;16.10;;;5.88;;
34673;SDS011;20879;55.668;37.858;2022-10-15T09:58:52;11.93;;;5.68;;
34673;SDS011;20879;55.668;37.858;2022-10-15T10:01:24;12.30;;;5.95;;
34673;SDS011;20879;55.668;37.858;2022-10-15T10:04:07;15.80;;;6.20;;
34673;SDS011;20879;55.668;37.858;2022-10-15T10:06:47;14.70;;;6.45;;
34673;SDS011;20879;55.668;37.858;2022-10-15T10:09:24;14.07;;;6.18;;
34673;SDS011;20879;55.668;37.858;2022-10-15T10:12:00;12.90;;;5.75;;
34673;SDS011;20879;55.668;37.858;2022-10-15T10:14:32;13.15;;;6.30;;
34673;SDS011;20879;55.668;37.858;2022-10-15T10:17:04;14.52;;;6.28;;
34673;SDS011;20879;55.668;37.858;2022-10-15T10:19:40;15.15;;;6.78;;
34673;SDS011;20879;55.668;37.858;2022-10-15T10:22:13;19.15;;;6.78;;
34673;SDS011;20879;55.668;37.858;2022-10-15T10:24:50;13.90;;;7.18;;
34673;SDS011;20879;55.668;37.858;2022-10-15T10:27:20;18.42;;;6.38;;
34673;SDS011;20879;55.668;37.858;2022-10-15T10:29:53;21.63;;;7.88;;
34673;SDS011;20879;55.668;37.858;2022-10-15T10:32:30;17.20;;;7.53;;
34673;SDS011;20879;55.668;37.858;2022-10-15T10:35:13;17.42;;;7.90;;
34673;SDS011;20879;55.668;37.858;2022-10-15T10:37:55;16.35;;;7.35;;
34673;SDS011;20879;55.668;37.858;2022-10-15T10:40:31;16.00;;;7.35;;
34673;SDS011;20879;55.668;37.858;2022-10-15T10:43:11;13.43;;;6.93;;
34673;SDS011;20879;55.668;37.858;2022-10-15T10:45:57;14.13;;;7.05;;
34673;SDS011;20879;55.668;37.858;2022-10-15T10:48:37;14.90;;;6.93;;
34673;SDS011;20879;55.668;37.858;2022-10-15T10:51:16;12.82;;;6.78;;
34673;SDS011;20879;55.668;37.858;2022-10-15T10:53:55;16.10;;;8.23;;
34673;SDS011;20879;55.668;37.858;2022-10-15T10:56:33;17.08;;;7.72;;
34673;SDS011;20879;55.668;37.858;2022-10-15T10:59:09;17.80;;;7.75;;
34673;SDS011;20879;55.668;37.858;2022-10-15T11:01:48;15.25;;;7.78;;
34673;SDS011;20879;55.668;37.858;2022-10-15T11:04:18;18.83;;;8.13;;
34673;SDS011;20879;55.668;37.858;2022-10-15T11:06:59;16.90;;;8.27;;
34673;SDS011;20879;55.668;37.858;2022-10-15T11:09:41;17.25;;;7.68;;
34673;SDS011;20879;55.668;37.858;2022-10-15T11:12:29;18.33;;;8.30;;
34673;SDS011;20879;55.668;37.858;2022-10-15T11:15:17;17.85;;;8.98;;
34673;SDS011;20879;55.668;37.858;2022-10-15T11:18:01;17.05;;;8.52;;
34673;SDS011;20879;55.668;37.858;2022-10-15T11:20:47;19.25;;;9.15;;
34673;SDS011;20879;55.668;37.858;2022-10-15T11:23:39;16.10;;;8.60;;
34673;SDS011;20879;55.668;37.858;2022-10-15T11:26:22;19.65;;;8.45;;
34673;SDS011;20879;55.668;37.858;2022-10-15T11:29:20;16.25;;;7.43;;
34673;SDS011;20879;55.668;37.858;2022-10-15T11:32:05;22.00;;;7.97;;
34673;SDS011;20879;55.668;37.858;2022-10-15T11:34:56;15.63;;;8.52;;
34673;SDS011;20879;55.668;37.858;2022-10-15T11:40:45;16.23;;;7.97;;
34673;SDS011;20879;55.668;37.858;2022-10-15T11:43:39;21.98;;;8.73;;
34673;SDS011;20879;55.668;37.858;2022-10-15T11:46:21;17.00;;;8.50;;
34673;SDS011;20879;55.668;37.858;2022-10-15T11:51:48;17.58;;;8.15;;
34673;SDS011;20879;55.668;37.858;2022-10-15T11:54:30;20.67;;;9.38;;
34673;SDS011;20879;55.668;37.858;2022-10-15T11:57:07;23.92;;;9.88;;
34673;SDS011;20879;55.668;37.858;2022-10-15T11:59:48;20.88;;;8.45;;
34673;SDS011;20879;55.668;37.858;2022-10-15T12:02:23;19.05;;;8.40;;
34673;SDS011;20879;55.668;37.858;2022-10-15T12:04:58;16.98;;;8.25;;
34673;SDS011;20879;55.668;37.858;2022-10-15T12:10:28;18.75;;;9.15;;
34673;SDS011;20879;55.668;37.858;2022-10-15T12:13:07;19.95;;;9.18;;
34673;SDS011;20879;55.668;37.858;2022-10-15T12:15:50;20.05;;;9.45;;
34673;SDS011;20879;55.668;37.858;2022-10-15T12:18:42;21.08;;;8.50;;
34673;SDS011;20879;55.668;37.858;2022-10-15T12:21:28;22.80;;;9.30;;
34673;SDS011;20879;55.668;37.858;2022-10-15T12:24:00;14.63;;;7.47;;
34673;SDS011;20879;55.668;37.858;2022-10-15T12:26:35;16.45;;;7.85;;
34673;SDS011;20879;55.668;37.858;2022-10-15T12:29:05;20.05;;;11.95;;
34673;SDS011;20879;55.668;37.858;2022-10-15T12:34:27;21.23;;;8.25;;
34673;SDS011;20879;55.668;37.858;2022-10-15T12:37:01;15.05;;;7.95;;
34673;SDS011;20879;55.668;37.858;2022-10-15T12:39:34;19.00;;;7.78;;
34673;SDS011;20879;55.668;37.858;2022-10-15T12:42:22;15.68;;;7.82;;
34673;SDS011;20879;55.668;37.858;2022-10-15T12:45:02;16.50;;;8.25;;
34673;SDS011;20879;55.668;37.858;2022-10-15T12:47:49;18.90;;;7.88;;
34673;SDS011;20879;55.668;37.858;2022-10-15T13:01:26;20.83;;;8.30;;
34673;SDS011;20879;55.668;37.858;2022-10-15T13:04:02;18.83;;;8.52;;
34673;SDS011;20879;55.668;37.858;2022-10-15T13:06:32;17.80;;;9.20;;
34673;SDS011;20879;55.668;37.858;2022-10-15T13:09:13;21.55;;;9.25;;
34673;SDS011;20879;55.668;37.858;2022-10-15T13:11:52;16.45;;;9.10;;
34673;SDS011;20879;55.668;37.858;2022-10-15T13:14:27;17.15;;;8.52;;
34673;SDS011;20879;55.668;37.858;2022-10-15T13:17:03;16.85;;;7.82;;
34673;SDS011;20879;55.668;37.858;2022-10-15T13:19:45;18.92;;;9.20;;
34673;SDS011;20879;55.668;37.858;2022-10-15T13:22:22;19.65;;;8.85;;
34673;SDS011;20879;55.668;37.858;2022-10-15T13:27:29;16.88;;;8.07;;
34673;SDS011;20879;55.668;37.858;2022-10-15T13:30:03;15.43;;;8.00;;
34673;SDS011;20879;55.668;37.858;2022-10-15T13:32:34;19.63;;;7.80;;
34673;SDS011;20879;55.668;37.858;2022-10-15T13:35:08;15.65;;;8.30;;
34673;SDS011;20879;55.668;37.858;2022-10-15T13:37:40;16.50;;;7.63;;
34673;SDS011;20879;55.668;37.858;2022-10-15T13:40:15;17.10;;;7.25;;
34673;SDS011;20879;55.668;37.858;2022-10-15T13:42:57;16.27;;;7.38;;
34673;SDS011;20879;55.668;37.858;2022-10-15T13:45:29;18.92;;;8.35;;
34673;SDS011;20879;55.668;37.858;2022-10-15T13:47:58;18.40;;;8.15;;
34673;SDS011;20879;55.668;37.858;2022-10-15T13:50:30;20.77;;;9.38;;
34673;SDS011;20879;55.668;37.858;2022-10-15T13:53:02;17.33;;;7.80;;
34673;SDS011;20879;55.668;37.858;2022-10-15T13:55:44;18.63;;;9.93;;
34673;SDS011;20879;55.668;37.858;2022-10-15T13:58:23;19.80;;;8.63;;
34673;SDS011;20879;55.668;37.858;2022-10-15T14:00:57;15.80;;;8.75;;
34673;SDS011;20879;55.668;37.858;2022-10-15T14:03:33;17.52;;;9.15;;
34673;SDS011;20879;55.668;37.858;2022-10-15T14:06:08;21.38;;;9.05;;
34673;SDS011;20879;55.668;37.858;2022-10-15T14:08:44;17.23;;;8.75;;
34673;SDS011;20879;55.668;37.858;2022-10-15T14:11:14;16.00;;;8.63;;
34673;SDS011;20879;55.668;37.858;2022-10-15T14:13:50;17.95;;;8.25;;
34673;SDS011;20879;55.668;37.858;2022-10-15T14:16:30;15.70;;;7.18;;
34673;SDS011;20879;55.668;37.858;2022-10-15T14:19:07;13.55;;;6.68;;
34673;SDS011;20879;55.668;37.858;2022-10-15T14:21:41;15.30;;;6.88;;
34673;SDS011;20879;55.668;37.858;2022-10-15T14:24:19;14.18;;;6.47;;
34673;SDS011;20879;55.668;37.858;2022-10-15T14:26:49;15.70;;;7.05;;
34673;SDS011;20879;55.668;37.858;2022-10-15T14:29:20;16.38;;;6.38;;
34673;SDS011;20879;55.668;37.858;2022-10-15T14:31:54;22.23;;;6.38;;
34673;SDS011;20879;55.668;37.858;2022-10-15T14:40:00;17.33;;;7.38;;
34673;SDS011;20879;55.668;37.858;2022-10-15T14:42:32;14.20;;;7.20;;
34673;SDS011;20879;55.668;37.858;2022-10-15T14:45:09;17.95;;;8.00;;
34673;SDS011;20879;55.668;37.858;2022-10-15T14:47:42;14.00;;;6.63;;
34673;SDS011;20879;55.668;37.858;2022-10-15T14:50:13;17.27;;;7.07;;
34673;SDS011;20879;55.668;37.858;2022-10-15T14:52:43;15.82;;;6.65;;
34673;SDS011;20879;55.668;37.858;2022-10-15T14:57:53;13.73;;;6.65;;
34673;SDS011;20879;55.668;37.858;2022-10-15T15:00:23;17.02;;;7.22;;
34673;SDS011;20879;55.668;37.858;2022-10-15T15:02:57;14.43;;;6.50;;
34673;SDS011;20879;55.668;37.858;2022-10-15T15:05:29;14.05;;;7.32;;
34673;SDS011;20879;55.668;37.858;2022-10-15T15:07:58;15.65;;;7.47;;
34673;SDS011;20879;55.668;37.858;2022-10-15T15:10:32;14.40;;;7.53;;
34673;SDS011;20879;55.668;37.858;2022-10-15T15:13:02;13.68;;;6.72;;
34673;SDS011;20879;55.668;37.858;2022-10-15T15:15:38;20.80;;;8.07;;
34673;SDS011;20879;55.668;37.858;2022-10-15T15:18:16;19.20;;;8.30;;
34673;SDS011;20879;55.668;37.858;2022-10-15T15:20:47;18.05;;;8.18;;
34673;SDS011;20879;55.668;37.858;2022-10-15T15:23:18;20.83;;;9.30;;
34673;SDS011;20879;55.668;37.858;2022-10-15T15:25:49;27.98;;;10.07;;
34673;SDS011;20879;55.668;37.858;2022-10-15T15:28:20;18.23;;;10.05;;
34673;SDS011;20879;55.668;37.858;2022-10-15T15:30:54;18.65;;;9.70;;
34673;SDS011;20879;55.668;37.858;2022-10-15T15:33:26;24.88;;;10.35;;
34673;SDS011;20879;55.668;37.858;2022-10-15T15:35:59;28.92;;;12.40;;
34673;SDS011;20879;55.668;37.858;2022-10-15T15:38:35;23.40;;;10.75;;
34673;SDS011;20879;55.668;37.858;2022-10-15T15:41:14;22.00;;;10.20;;
34673;SDS011;20879;55.668;37.858;2022-10-15T15:43:44;19.83;;;10.27;;
34673;SDS011;20879;55.668;37.858;2022-10-15T15:46:19;18.75;;;10.18;;
34673;SDS011;20879;55.668;37.858;2022-10-15T15:49:01;21.20;;;10.50;;
34673;SDS011;20879;55.668;37.858;2022-10-15T15:51:36;20.95;;;11.38;;
34673;SDS011;20879;55.668;37.858;2022-10-15T15:54:08;26.17;;;9.60;;